createdAt,value
2023-02-03T00:00:16.847Z,101676.59
2023-02-03T00:02:51.947Z,101677.66
2023-02-03T00:05:27.956Z,101682.78
2023-02-03T00:08:02.694Z,101675.19
2023-02-03T00:10:35.669Z,101680.22
2023-02-03T00:13:09.500Z,101686.09
2023-02-03T00:15:45.138Z,101682.84
2023-02-03T00:18:19.672Z,101704.53
2023-02-03T00:20:50.434Z,101711.56
2023-02-03T00:23:23.421Z,101715.41
2023-02-03T00:25:54.344Z,101712.22
2023-02-03T00:28:29.076Z,101715.97
2023-02-03T00:31:04.471Z,101704.19
2023-02-03T00:33:42.913Z,101707.41
2023-02-03T00:36:18.873Z,101719.31
2023-02-03T00:38:50.212Z,101714.56
2023-02-03T00:41:21.689Z,101698.91
2023-02-03T00:43:55.390Z,101691.28
2023-02-03T00:46:31.239Z,101710.13
2023-02-03T00:49:04.883Z,101728.34
2023-02-03T00:51:38.378Z,101710.94
2023-02-03T00:54:12.092Z,101708.94
2023-02-03T00:56:50.218Z,101713.94
2023-02-03T00:59:20.297Z,101717.69
2023-02-03T01:01:59.143Z,101704.19
2023-02-03T01:04:34.491Z,101700.53
2023-02-03T01:07:13.126Z,101727.41
2023-02-03T01:09:49.706Z,101725.22
2023-02-03T01:12:20.994Z,101735.59
2023-02-03T01:14:54.602Z,101745.34
2023-02-03T01:17:30.090Z,101746.25
2023-02-03T01:20:01.919Z,101733.03
2023-02-03T01:22:40.591Z,101729.69
2023-02-03T01:25:14.049Z,101737.69
2023-02-03T01:27:42.263Z,101751.50
2023-02-03T01:30:18.581Z,101733.13
2023-02-03T01:32:53.496Z,101730.50
2023-02-03T01:35:27.128Z,101715.38
2023-02-03T01:37:59.522Z,101727.31
2023-02-03T01:40:38.022Z,101717.47
2023-02-03T01:43:13.231Z,101727.03
2023-02-03T01:45:46.467Z,101730.22
2023-02-03T01:48:26.297Z,101731.75
2023-02-03T01:51:03.324Z,101731.75
2023-02-03T01:53:37.723Z,101736.59
2023-02-03T01:56:11.822Z,101730.13
2023-02-03T01:58:45.792Z,101724.75
2023-02-03T02:01:25.307Z,101719.09
2023-02-03T02:04:01.254Z,101724.97
2023-02-03T02:06:35.502Z,101718.03
2023-02-03T02:09:09.059Z,101700.00
2023-02-03T02:11:47.466Z,101708.84
2023-02-03T02:14:25.927Z,101710.94
2023-02-03T02:17:05.204Z,101706.28
2023-02-03T02:20:14.332Z,101702.75
2023-02-03T02:23:18.113Z,101698.31
2023-02-03T02:26:03.935Z,101710.22
2023-02-03T02:29:07.563Z,101705.47
2023-02-03T02:31:56.630Z,101720.84
2023-02-03T02:34:48.849Z,101727.16
2023-02-03T02:38:07.177Z,101740.78
2023-02-03T02:41:22.511Z,101741.34
2023-02-03T02:44:08.360Z,101751.88
2023-02-03T02:46:52.471Z,101753.06
2023-02-03T02:49:28.168Z,101752.78
2023-02-03T02:52:05.492Z,101741.50
2023-02-03T02:54:44.005Z,101754.91
2023-02-03T02:57:15.379Z,101742.88
2023-02-03T02:59:50.377Z,101732.41
2023-02-03T03:02:35.026Z,101732.56
2023-02-03T03:05:11.485Z,101732.50
2023-02-03T03:07:59.245Z,101730.97
2023-02-03T03:10:43.065Z,101741.34
2023-02-03T03:13:28.819Z,101739.03
2023-02-03T03:16:11.240Z,101748.25
2023-02-03T03:18:56.599Z,101740.25
2023-02-03T03:21:41.372Z,101732.72
2023-02-03T03:24:18.645Z,101736.78
2023-02-03T03:27:05.462Z,101745.53
2023-02-03T03:29:46.007Z,101737.25
2023-02-03T03:32:14.628Z,101745.25
2023-02-03T03:34:55.330Z,101749.00
2023-02-03T03:37:38.033Z,101761.44
2023-02-03T03:40:31.847Z,101768.25
2023-02-03T03:43:27.958Z,101790.13
2023-02-03T03:46:09.636Z,101780.56
2023-02-03T03:48:58.642Z,101787.13
2023-02-03T03:51:34.714Z,101792.66
2023-02-03T03:54:12.654Z,101798.09
2023-02-03T03:57:06.451Z,101796.91
2023-02-03T03:59:44.476Z,101797.19
2023-02-03T04:02:17.130Z,101799.28
2023-02-03T04:04:56.194Z,101795.81
2023-02-03T04:07:47.280Z,101792.19
2023-02-03T04:10:20.316Z,101812.97
2023-02-03T04:12:59.150Z,101816.03
2023-02-03T04:15:30.660Z,101811.66
2023-02-03T04:18:08.379Z,101803.56
2023-02-03T04:20:43.937Z,101813.47
2023-02-03T04:23:17.332Z,101805.09
2023-02-03T04:25:50.460Z,101809.06
2023-02-03T04:28:23.384Z,101803.91
2023-02-03T04:31:00.123Z,101798.22
2023-02-03T04:33:31.402Z,101799.56
2023-02-03T04:36:11.162Z,101788.47
2023-02-03T04:38:42.329Z,101774.66
2023-02-03T04:41:15.677Z,101753.59
2023-02-03T04:43:46.161Z,101734.94
2023-02-03T04:46:22.395Z,101741.88
2023-02-03T04:48:52.820Z,101749.50
2023-02-03T04:51:30.133Z,101752.97
2023-02-03T04:54:11.531Z,101758.31
2023-02-03T04:56:45.511Z,101753.31
2023-02-03T04:59:27.017Z,101755.78
2023-02-03T05:01:58.530Z,101752.75
2023-02-03T05:04:32.458Z,101762.03
2023-02-03T05:07:00.476Z,101763.63
2023-02-03T05:09:37.089Z,101761.97
2023-02-03T05:12:13.126Z,101771.44
2023-02-03T05:14:50.886Z,101775.41
2023-02-03T05:17:26.733Z,101776.53
2023-02-03T05:19:59.527Z,101783.13
2023-02-03T05:22:30.593Z,101783.50
2023-02-03T05:25:09.532Z,101774.88
2023-02-03T05:27:43.310Z,101788.78
2023-02-03T05:30:17.827Z,101784.94
2023-02-03T05:32:54.288Z,101775.47
2023-02-03T05:35:25.481Z,101776.50
2023-02-03T05:37:56.131Z,101766.97
2023-02-03T05:40:46.380Z,101785.13
2023-02-03T05:43:20.719Z,101775.53
2023-02-03T05:45:58.252Z,101784.69
2023-02-03T05:48:32.572Z,101800.63
2023-02-03T05:51:10.769Z,101800.22
2023-02-03T05:53:46.580Z,101804.69
2023-02-03T05:56:17.872Z,101809.13
2023-02-03T05:58:48.655Z,101805.06
2023-02-03T06:01:22.597Z,101811.84
2023-02-03T06:03:58.002Z,101824.59
2023-02-03T06:06:34.366Z,101817.03
2023-02-03T06:09:07.760Z,101808.97
2023-02-03T06:11:44.556Z,101807.69
2023-02-03T06:14:20.390Z,101811.78
2023-02-03T06:16:54.628Z,101807.88
2023-02-03T06:19:27.634Z,101804.47
2023-02-03T06:22:07.069Z,101801.09
2023-02-03T06:24:42.347Z,101816.00
2023-02-03T06:27:24.518Z,101815.19
2023-02-03T06:29:57.768Z,101823.75
2023-02-03T06:32:28.173Z,101827.19
2023-02-03T06:35:01.256Z,101839.78
2023-02-03T06:37:33.795Z,101849.94
2023-02-03T06:40:07.962Z,101833.59
2023-02-03T06:42:45.627Z,101834.78
2023-02-03T06:45:18.534Z,101844.53
2023-02-03T06:47:49.039Z,101859.06
2023-02-03T06:50:25.536Z,101864.25
2023-02-03T06:53:04.253Z,101869.66
2023-02-03T06:55:37.554Z,101881.53
2023-02-03T06:58:18.066Z,101895.25
2023-02-03T07:00:51.537Z,101901.97
2023-02-03T07:03:27.603Z,101884.63
2023-02-03T07:06:03.492Z,101883.22
2023-02-03T07:08:35.995Z,101895.41
2023-02-03T07:11:14.257Z,101918.66
2023-02-03T07:13:49.411Z,101909.72
2023-02-03T07:16:24.853Z,101903.03
2023-02-03T07:18:58.801Z,101921.06
2023-02-03T07:21:32.142Z,101919.88
2023-02-03T07:24:13.910Z,101893.84
2023-02-03T07:26:45.371Z,101899.47
2023-02-03T07:29:23.973Z,101895.00
2023-02-03T07:32:06.891Z,101892.34
2023-02-03T07:34:39.854Z,101909.97
2023-02-03T07:37:16.058Z,101904.53
2023-02-03T07:40:02.022Z,101920.97
2023-02-03T07:42:33.552Z,101932.16
2023-02-03T07:45:13.152Z,101935.09
2023-02-03T07:47:52.837Z,101925.44
2023-02-03T07:50:27.204Z,101909.88
2023-02-03T07:52:58.490Z,101914.34
2023-02-03T07:55:41.535Z,101925.19
2023-02-03T07:58:17.235Z,101913.81
2023-02-03T08:01:00.024Z,101918.06
2023-02-03T08:03:40.547Z,101928.97
2023-02-03T08:06:14.488Z,101935.06
2023-02-03T08:08:46.491Z,101926.75
2023-02-03T08:11:29.220Z,101930.38
2023-02-03T08:14:05.664Z,101933.66
2023-02-03T08:16:41.886Z,101923.25
2023-02-03T08:19:16.765Z,101916.59
2023-02-03T08:21:52.739Z,101906.56
2023-02-03T08:24:32.950Z,101919.91
2023-02-03T08:27:15.988Z,101919.72
2023-02-03T08:29:47.004Z,101921.97
2023-02-03T08:32:26.093Z,101924.28
2023-02-03T08:35:02.327Z,101915.50
2023-02-03T08:37:40.434Z,101913.97
2023-02-03T08:40:15.102Z,101910.81
2023-02-03T08:42:53.754Z,101898.03
2023-02-03T08:45:30.703Z,101896.28
2023-02-03T08:48:10.628Z,101887.22
2023-02-03T08:50:44.720Z,101892.88
2023-02-03T08:53:24.931Z,101899.44
2023-02-03T08:55:59.955Z,101896.38
2023-02-03T08:58:37.974Z,101894.69
2023-02-03T09:01:19.635Z,101910.47
2023-02-03T09:03:52.844Z,101913.50
2023-02-03T09:06:26.275Z,101919.09
2023-02-03T09:09:06.607Z,101928.81
2023-02-03T09:11:42.292Z,101933.56
2023-02-03T09:14:19.530Z,101926.16
2023-02-03T09:16:55.696Z,101922.81
2023-02-03T09:19:35.535Z,101930.66
2023-02-03T09:22:13.557Z,101905.59
2023-02-03T09:24:55.609Z,101911.63
2023-02-03T09:27:32.035Z,101936.22
2023-02-03T09:30:05.828Z,101950.66
2023-02-03T09:32:49.123Z,101959.88
2023-02-03T09:35:23.915Z,101951.41
2023-02-03T09:38:02.224Z,101958.38
2023-02-03T09:40:47.083Z,101961.50
2023-02-03T09:43:46.923Z,101975.22
2023-02-03T09:46:44.664Z,101955.13
2023-02-03T09:49:28.947Z,101943.50
2023-02-03T09:52:25.277Z,101942.03
2023-02-03T09:54:56.492Z,101942.50
2023-02-03T09:57:35.400Z,101941.22
2023-02-03T10:00:22.096Z,101945.59
2023-02-03T10:03:24.878Z,101950.84
2023-02-03T10:06:09.219Z,101939.19
2023-02-03T10:09:10.757Z,101931.84
2023-02-03T10:11:49.896Z,101927.38
2023-02-03T10:14:32.851Z,101939.66
2023-02-03T10:17:30.541Z,101940.94
2023-02-03T10:20:17.465Z,101940.47
2023-02-03T10:22:57.500Z,101935.47
2023-02-03T10:25:46.108Z,101930.38
2023-02-03T10:28:23.049Z,101931.59
2023-02-03T10:31:03.116Z,101939.41
2023-02-03T10:33:42.151Z,101935.13
2023-02-03T10:36:15.210Z,101930.13
2023-02-03T10:39:04.847Z,101925.28
2023-02-03T10:41:43.175Z,101917.44
2023-02-03T10:44:19.196Z,101922.09
2023-02-03T10:46:57.689Z,101917.25
2023-02-03T10:49:32.087Z,101905.97
2023-02-03T10:52:12.673Z,101886.44
2023-02-03T10:54:46.024Z,101880.78
2023-02-03T10:57:23.545Z,101877.50
2023-02-03T10:59:54.209Z,101871.34
2023-02-03T11:02:29.013Z,101865.09
2023-02-03T11:05:25.108Z,101866.59
2023-02-03T11:07:58.813Z,101863.59
2023-02-03T11:10:41.251Z,101864.75
2023-02-03T11:13:26.106Z,101863.59
2023-02-03T11:16:13.280Z,101853.47
2023-02-03T11:19:12.024Z,101861.34
2023-02-03T11:21:45.008Z,101862.13
2023-02-03T11:24:30.385Z,101853.53
2023-02-03T11:27:04.955Z,101829.38
2023-02-03T11:29:50.763Z,101834.16
2023-02-03T11:32:34.715Z,101839.66
2023-02-03T11:35:26.352Z,101828.56
2023-02-03T11:38:03.087Z,101831.94
2023-02-03T11:40:42.069Z,101821.94
2023-02-03T11:43:28.386Z,101825.22
2023-02-03T11:46:12.245Z,101814.66
2023-02-03T11:49:05.170Z,101802.78
2023-02-03T11:51:51.407Z,101785.31
2023-02-03T11:54:46.924Z,101785.31
2023-02-03T11:57:42.427Z,101780.06
2023-02-03T12:00:31.660Z,101760.00
2023-02-03T12:03:25.131Z,101759.47
2023-02-03T12:06:11.324Z,101758.59
2023-02-03T12:08:58.268Z,101755.03
2023-02-03T12:11:51.249Z,101758.44
2023-02-03T12:14:54.039Z,101742.63
2023-02-03T12:17:49.847Z,101731.56
2023-02-03T12:20:44.878Z,101719.72
2023-02-03T12:23:42.237Z,101710.41
2023-02-03T12:26:24.203Z,101701.66
2023-02-03T12:29:04.165Z,101704.88
2023-02-03T12:32:00.642Z,101701.09
2023-02-03T12:34:47.583Z,101708.22
2023-02-03T12:38:08.068Z,101686.66
2023-02-03T12:40:49.508Z,101671.38
2023-02-03T12:43:33.491Z,101671.94
2023-02-03T12:46:20.238Z,101664.19
2023-02-03T12:49:06.133Z,101654.84
2023-02-03T12:51:42.611Z,101647.09
2023-02-03T12:54:30.387Z,101641.03
2023-02-03T12:57:29.797Z,101644.25
2023-02-03T13:00:35.341Z,101625.66
2023-02-03T13:03:27.627Z,101628.09
2023-02-03T13:06:23.028Z,101631.59
2023-02-03T13:09:14.553Z,101613.47
2023-02-03T13:12:11.274Z,101607.03
2023-02-03T13:14:42.730Z,101605.50
2023-02-03T13:17:50.533Z,101607.72
2023-02-03T13:20:36.293Z,101606.78
2023-02-03T13:23:13.705Z,101605.56
2023-02-03T13:26:15.800Z,101589.94
2023-02-03T13:29:02.380Z,101572.81
2023-02-03T13:32:09.122Z,101585.63
2023-02-03T13:35:00.296Z,101584.94
2023-02-03T13:38:08.257Z,101585.63
2023-02-03T13:41:17.333Z,101581.06
2023-02-03T13:43:58.158Z,101577.72
2023-02-03T13:46:36.961Z,101586.31
2023-02-03T13:49:09.159Z,101585.50
2023-02-03T13:51:53.064Z,101569.00
2023-02-03T13:54:43.226Z,101576.50
2023-02-03T13:57:44.209Z,101569.94
2023-02-03T14:00:56.554Z,101561.00
2023-02-03T14:03:36.725Z,101559.31
2023-02-03T14:06:33.957Z,101554.25
2023-02-03T14:09:24.308Z,101559.38
2023-02-03T14:12:22.150Z,101550.00
2023-02-03T14:15:03.518Z,101537.75
2023-02-03T14:17:47.273Z,101548.31
2023-02-03T14:20:31.683Z,101547.78
2023-02-03T14:23:15.842Z,101536.19
2023-02-03T14:25:51.428Z,101542.16
2023-02-03T14:28:29.805Z,101556.31
2023-02-03T14:31:17.225Z,101556.03
2023-02-03T14:33:55.373Z,101535.03
2023-02-03T14:36:52.045Z,101543.88
2023-02-03T14:39:55.473Z,101552.34
2023-02-03T14:42:49.471Z,101544.00
2023-02-03T14:45:50.472Z,101540.47
2023-02-03T14:48:36.687Z,101529.56
2023-02-03T14:51:42.408Z,101544.63
2023-02-03T14:54:26.602Z,101554.59
2023-02-03T14:57:16.299Z,101551.84
2023-02-03T15:00:08.052Z,101553.03
2023-02-03T15:03:01.874Z,101550.91
2023-02-03T15:05:35.858Z,101545.94
2023-02-03T15:08:24.485Z,101553.50
2023-02-03T15:10:57.843Z,101550.72
2023-02-03T15:13:29.040Z,101550.72
2023-02-03T15:16:02.974Z,101547.44
2023-02-03T15:18:33.467Z,101546.00
2023-02-03T15:21:07.566Z,101541.69
2023-02-03T15:23:48.396Z,101525.22
2023-02-03T15:26:23.655Z,101533.38
2023-02-03T15:29:08.899Z,101543.63
2023-02-03T15:31:46.246Z,101542.97
2023-02-03T15:34:35.510Z,101527.22
2023-02-03T15:37:24.764Z,101538.09
2023-02-03T15:40:16.355Z,101534.66
2023-02-03T15:43:06.417Z,101526.94
2023-02-03T15:45:59.646Z,101525.88
2023-02-03T15:48:44.871Z,101520.69
2023-02-03T15:51:20.052Z,101521.63
2023-02-03T15:54:17.591Z,101518.34
2023-02-03T15:57:03.020Z,101507.50
2023-02-03T15:59:46.497Z,101515.38
2023-02-03T16:02:27.415Z,101524.72
2023-02-03T16:05:21.439Z,101511.44
2023-02-03T16:08:18.648Z,101510.97
2023-02-03T16:11:03.511Z,101520.91
2023-02-03T16:13:35.947Z,101514.63
2023-02-03T16:17:03.507Z,101517.44
2023-02-03T16:19:40.362Z,101505.22
2023-02-03T16:22:32.883Z,101512.50
2023-02-03T16:25:23.785Z,101513.28
2023-02-03T16:28:31.784Z,101495.66
2023-02-03T16:31:35.887Z,101490.72
2023-02-03T16:34:32.584Z,101478.53
2023-02-03T16:41:16.305Z,101466.03
2023-02-03T16:44:05.817Z,101454.28
2023-02-03T16:46:58.836Z,101465.72
2023-02-03T16:49:48.677Z,101462.84
